Time;durP1;ratioP1;P1;durP2;ratioP2;P2;SDS_P1;SDS_P2;PMS_P1;PMS_P2;Temp;Humidity;BMP_temperature;BMP_pressure;BME280_temperature;BME280_humidity;BME280_pressure;Samples;Min_cycle;Max_cycle;Signal;HPM_P1;HPM_P2
2021/12/01 00:02:23;;;;;;;;;1.00;1.00;;;;;9.80;68.33;100717.63;4963861;28;45321;-67
2021/12/01 00:04:49;;;;;;;;;4.00;1.00;;;;;9.81;67.51;100699.22;4958717;28;45483;-67
2021/12/01 00:07:14;;;;;;;;;2.00;2.00;;;;;9.86;67.57;100707.25;4969391;28;45939;-67
2021/12/01 00:09:40;;;;;;;;;1.50;1.25;;;;;9.80;67.21;100684.25;4958588;28;45456;-67
2021/12/01 00:12:05;;;;;;;;;2.00;2.00;;;;;9.89;67.67;100690.56;4969054;28;45317;-67
2021/12/01 00:14:31;;;;;;;;;1.00;1.00;;;;;9.93;67.68;100689.81;4958422;28;45307;-67
2021/12/01 00:16:56;;;;;;;;;2.00;1.00;;;;;9.89;67.83;100666.81;4969144;28;45399;-67
2021/12/01 00:19:21;;;;;;;;;3.75;2.00;;;;;9.91;67.36;100659.81;4958840;28;45426;-67
2021/12/01 00:21:47;;;;;;;;;2.50;2.00;;;;;9.88;67.63;100643.91;4960611;28;45379;-67
2021/12/01 00:24:12;;;;;;;;;2.25;2.25;;;;;9.92;68.51;100633.47;4958403;28;45193;-67
2021/12/01 00:26:37;;;;;;;;;3.00;3.00;;;;;9.91;67.53;100628.16;4960638;28;45504;-67
2021/12/01 00:29:03;;;;;;;;;3.50;3.50;;;;;9.91;68.32;100621.13;4957424;28;45459;-67
2021/12/01 00:31:29;;;;;;;;;3.00;3.00;;;;;9.94;68.30;100617.66;4960725;28;45709;-67
2021/12/01 00:33:55;;;;;;;;;5.25;4.00;;;;;9.95;67.64;100608.91;4958156;28;45602;-67
2021/12/01 00:36:21;;;;;;;;;3.25;3.25;;;;;9.89;68.55;100600.81;4960702;28;45434;-67
2021/12/01 00:38:46;;;;;;;;;3.00;3.00;;;;;9.92;68.44;100577.16;4956640;28;45266;-67
2021/12/01 00:41:12;;;;;;;;;3.75;3.75;;;;;9.95;68.43;100575.47;4963347;28;45637;-67
2021/12/01 00:43:39;;;;;;;;;8.50;5.00;;;;;9.92;68.48;100562.19;4963059;28;45595;-67
2021/12/01 00:46:20;;;;;;;;;5.00;5.00;;;;;9.97;68.58;100562.28;4976165;28;45260;-67
2021/12/01 00:48:46;;;;;;;;;4.00;4.00;;;;;9.95;69.23;100553.44;4973928;28;45352;-67
2021/12/01 00:51:11;;;;;;;;;5.00;5.00;;;;;9.93;69.21;100547.25;4962195;28;46514;-67
2021/12/01 00:53:37;;;;;;;;;5.50;5.50;;;;;9.86;68.67;100533.03;4960700;28;45883;-67
2021/12/01 00:56:04;;;;;;;;;5.00;3.50;;;;;9.89;69.12;100527.81;4962100;28;45322;-67
2021/12/01 00:58:29;;;;;;;;;4.25;4.00;;;;;9.93;69.00;100523.47;4957824;28;45564;-67
2021/12/01 01:00:55;;;;;;;;;3.50;3.50;;;;;9.92;69.27;100527.88;4971613;28;46579;-67
2021/12/01 01:03:20;;;;;;;;;4.00;4.00;;;;;9.90;68.92;100502.28;4973605;28;45269;-67
2021/12/01 01:05:46;;;;;;;;;5.00;5.00;;;;;9.77;68.89;100472.97;4961145;28;45311;-67
2021/12/01 01:08:11;;;;;;;;;5.75;4.00;;;;;9.92;69.03;100497.94;4957766;28;45503;-67
2021/12/01 01:18:38;;;;;;;;;3.50;3.50;;;;;9.96;68.90;100487.47;4963802;28;45250;-66
2021/12/01 01:21:06;;;;;;;;;4.00;4.00;;;;;9.93;69.28;100470.69;4961624;28;46433;-67
2021/12/01 01:23:33;;;;;;;;;3.00;2.25;;;;;9.94;69.03;100467.16;4957889;28;45259;-67
2021/12/01 01:25:59;;;;;;;;;6.25;3.00;;;;;9.87;69.02;100450.31;4959335;28;45330;-67
2021/12/01 01:28:25;;;;;;;;;4.00;2.50;;;;;9.90;69.25;100447.72;4957809;28;45483;-67
2021/12/01 01:30:53;;;;;;;;;3.50;2.00;;;;;9.88;69.74;100438.00;4966131;28;46198;-67
2021/12/01 01:33:20;;;;;;;;;2.00;2.00;;;;;9.91;68.96;100440.69;4961700;28;45439;-67
2021/12/01 01:35:46;;;;;;;;;2.00;2.00;;;;;9.96;69.38;100449.63;4962172;28;45315;-67
2021/12/01 01:38:12;;;;;;;;;1.75;1.00;;;;;9.95;68.87;100454.00;4956101;28;45927;-67
2021/12/01 01:40:37;;;;;;;;;2.00;2.00;;;;;9.94;69.20;100436.41;4959855;28;45414;-67
2021/12/01 01:43:04;;;;;;;;;2.00;2.00;;;;;9.98;69.36;100445.25;4977185;28;45275;-67
2021/12/01 01:45:30;;;;;;;;;2.75;2.00;;;;;9.97;69.39;100441.75;4972105;28;45330;-67
2021/12/01 01:48:06;;;;;;;;;1.25;1.25;;;;;9.97;69.67;100439.09;4977152;28;45221;-67
2021/12/01 01:50:36;;;;;;;;;3.50;1.00;;;;;9.96;69.70;100428.50;4963059;28;46633;-67
2021/12/01 01:53:12;;;;;;;;;2.75;2.00;;;;;9.96;69.76;100428.50;4957269;28;45315;-67
2021/12/01 01:55:40;;;;;;;;;2.00;2.00;;;;;9.97;69.64;100425.91;4967694;28;45178;-67
2021/12/01 01:58:06;;;;;;;;;3.75;2.25;;;;;9.99;70.13;100431.19;4962886;28;46138;-67
2021/12/01 02:00:36;;;;;;;;;3.00;2.00;;;;;9.98;70.05;100411.81;4967709;28;45483;-66
2021/12/01 02:03:01;;;;;;;;;3.50;2.00;;;;;9.95;69.89;100418.81;4962306;28;46173;-67
2021/12/01 02:05:27;;;;;;;;;2.00;2.00;;;;;9.93;69.96;100407.31;4967538;28;45188;-67
2021/12/01 02:07:53;;;;;;;;;2.00;2.00;;;;;9.92;70.31;100406.44;4966049;28;46051;-67
2021/12/01 02:10:19;;;;;;;;;1.00;1.00;;;;;9.91;70.44;100399.34;4961730;28;45572;-67
2021/12/01 02:12:44;;;;;;;;;2.00;1.00;;;;;9.95;70.05;100387.13;4956850;28;45616;-67
2021/12/01 02:15:10;;;;;;;;;2.00;2.00;;;;;9.91;70.49;100374.69;4959259;28;45237;-67
2021/12/01 02:17:36;;;;;;;;;1.50;1.00;;;;;9.85;70.23;100379.00;4956888;28;45253;-67
2021/12/01 02:20:23;;;;;;;;;1.00;1.00;;;;;9.94;70.08;100374.75;4959460;28;45343;-67
2021/12/01 02:22:49;;;;;;;;;0.00;0.00;;;;;9.92;70.26;100368.56;4955538;28;45320;-67
2021/12/01 02:25:15;;;;;;;;;0.00;0.00;;;;;9.96;69.47;100368.66;4959023;28;45698;-67
2021/12/01 02:27:40;;;;;;;;;0.75;0.75;;;;;9.94;70.29;100359.84;4955632;28;47310;-67
2021/12/01 02:30:07;;;;;;;;;3.00;1.00;;;;;9.99;69.86;100354.63;4959124;28;46163;-67
2021/12/01 02:32:32;;;;;;;;;0.50;0.50;;;;;9.97;69.60;100344.03;4956764;28;45275;-67
2021/12/01 02:34:57;;;;;;;;;0.75;0.75;;;;;10.01;69.30;100337.06;4959105;28;47215;-67
2021/12/01 02:37:23;;;;;;;;;0.50;0.50;;;;;10.03;70.07;100335.34;4971044;28;45965;-67
2021/12/01 02:39:50;;;;;;;;;1.25;0.75;;;;;9.96;69.86;100318.47;4964155;28;46584;-67
2021/12/01 02:42:18;;;;;;;;;1.00;1.00;;;;;10.01;70.37;100311.53;4969623;28;46047;-67
2021/12/01 02:44:44;;;;;;;;;0.75;0.75;;;;;9.99;70.26;100301.81;4956907;28;45348;-66
2021/12/01 02:47:09;;;;;;;;;2.00;2.00;;;;;9.99;70.45;100292.13;4977948;28;45557;-67
2021/12/01 02:49:35;;;;;;;;;1.75;1.50;;;;;9.98;70.48;100281.56;4969844;28;48142;-66
2021/12/01 02:52:00;;;;;;;;;2.00;2.00;;;;;9.97;70.80;100280.69;4972775;28;45299;-67
2021/12/01 02:54:26;;;;;;;;;1.50;1.25;;;;;10.00;70.75;100280.75;4975467;28;45560;-67
2021/12/01 02:56:53;;;;;;;;;4.25;3.25;;;;;9.93;71.14;100255.06;4963915;28;45321;-67
2021/12/01 02:59:20;;;;;;;;;2.25;2.25;;;;;9.89;71.08;100237.41;4961988;28;47577;-67
2021/12/01 03:01:46;;;;;;;;;1.75;1.75;;;;;9.93;70.81;100241.88;4982995;28;45347;-67
2021/12/01 03:04:13;;;;;;;;;1.00;1.00;;;;;9.88;70.70;100225.06;4961823;28;45285;-67
2021/12/01 03:06:40;;;;;;;;;2.00;2.00;;;;;9.86;71.62;100230.31;4968910;28;45931;-66
2021/12/01 03:09:07;;;;;;;;;4.00;2.50;;;;;9.86;71.91;100225.03;4975147;28;46293;-67
2021/12/01 03:11:33;;;;;;;;;3.75;2.00;;;;;9.88;72.23;100226.81;4961450;28;45282;-67
2021/12/01 03:13:58;;;;;;;;;2.00;2.00;;;;;9.78;71.57;100208.19;4961715;28;45289;-67
2021/12/01 03:16:24;;;;;;;;;1.00;1.00;;;;;9.83;72.05;100214.44;4970746;28;46160;-67
2021/12/01 03:18:50;;;;;;;;;2.00;2.00;;;;;9.88;71.81;100208.31;4960957;28;45529;-67
2021/12/01 03:21:16;;;;;;;;;2.00;2.00;;;;;9.81;71.78;100200.31;4959482;28;45344;-67
2021/12/01 03:23:42;;;;;;;;;0.00;0.00;;;;;9.84;71.81;100194.19;4960040;28;46248;-67
2021/12/01 03:26:08;;;;;;;;;2.00;2.00;;;;;9.84;71.88;100187.16;4960392;28;45408;-67
2021/12/01 03:28:34;;;;;;;;;0.75;0.75;;;;;9.83;71.84;100182.75;4959602;28;45592;-67
2021/12/01 03:30:59;;;;;;;;;1.00;1.00;;;;;9.77;72.47;100177.34;4961365;28;45410;-67
2021/12/01 03:33:26;;;;;;;;;2.25;0.75;;;;;9.79;73.22;100174.75;4958894;28;45170;-67
2021/12/01 03:35:52;;;;;;;;;1.00;1.00;;;;;9.78;72.34;100165.06;4960107;28;46508;-67
2021/12/01 03:38:21;;;;;;;;;1.00;1.00;;;;;9.75;73.06;100152.69;4958935;28;45277;-67
2021/12/01 03:40:47;;;;;;;;;0.00;0.00;;;;;9.74;73.83;100144.75;4961119;28;45442;-67
2021/12/01 03:43:12;;;;;;;;;0.75;0.75;;;;;9.75;72.98;100157.09;4977376;28;45506;-67
2021/12/01 03:45:38;;;;;;;;;0.50;0.50;;;;;9.65;74.19;100124.38;4968695;28;45443;-67
2021/12/01 03:48:03;;;;;;;;;0.75;0.75;;;;;9.66;74.17;100119.97;4978507;28;45330;-68
2021/12/01 03:50:29;;;;;;;;;1.50;0.00;;;;;9.67;75.75;100124.41;4972100;28;45249;-68
2021/12/01 03:52:55;;;;;;;;;0.00;0.00;;;;;9.62;74.32;100116.41;4959145;28;45432;-68
2021/12/01 03:55:21;;;;;;;;;0.00;0.00;;;;;9.60;75.16;100108.44;4967828;28;45439;-68
2021/12/01 03:57:46;;;;;;;;;0.00;0.00;;;;;9.59;75.96;100100.53;4960176;28;45606;-68
2021/12/01 04:00:14;;;;;;;;;1.50;0.00;;;;;9.61;74.59;100081.22;4967172;28;45280;-68
2021/12/01 04:02:40;;;;;;;;;0.00;0.00;;;;;9.60;75.84;100075.91;4961204;28;45224;-68
2021/12/01 04:05:06;;;;;;;;;0.75;0.75;;;;;9.56;75.97;100068.81;4965968;28;45608;-68
2021/12/01 04:07:32;;;;;;;;;1.75;1.00;;;;;9.52;75.56;100061.69;4961753;28;45328;-68
2021/12/01 04:09:57;;;;;;;;;1.00;0.00;;;;;9.58;75.04;100064.47;4967072;28;45878;-68
2021/12/01 04:12:24;;;;;;;;;2.75;1.50;;;;;9.55;75.48;100052.09;4963333;28;45326;-68
2021/12/01 04:14:49;;;;;;;;;1.00;0.75;;;;;9.51;75.18;100041.47;4960788;28;45201;-68
2021/12/01 04:17:15;;;;;;;;;2.00;1.00;;;;;9.52;75.83;100032.66;4958573;28;46553;-68
2021/12/01 04:19:40;;;;;;;;;0.50;0.50;;;;;9.53;75.75;100035.34;4961398;28;45275;-68
2021/12/01 04:22:06;;;;;;;;;1.00;1.00;;;;;9.48;75.76;100025.59;4965764;28;45208;-68
2021/12/01 04:24:31;;;;;;;;;2.75;2.50;;;;;9.52;76.02;100008.94;4960600;28;45412;-68
2021/12/01 04:26:57;;;;;;;;;0.50;0.50;;;;;9.57;76.34;100013.41;4958461;28;45418;-68
2021/12/01 04:29:23;;;;;;;;;1.00;1.00;;;;;9.57;76.06;100008.13;4961043;28;45411;-69
2021/12/01 04:31:50;;;;;;;;;4.00;2.75;;;;;9.55;76.44;99982.59;4958398;28;45425;-69
2021/12/01 04:34:15;;;;;;;;;0.00;0.00;;;;;9.59;76.31;99973.88;4960640;28;46048;-69
2021/12/01 04:36:43;;;;;;;;;0.00;0.00;;;;;9.58;76.33;99974.75;4976285;28;48256;-69
2021/12/01 04:39:12;;;;;;;;;0.00;0.00;;;;;9.58;76.85;99966.84;4972471;28;45430;-68
2021/12/01 04:41:49;;;;;;;;;3.50;1.00;;;;;9.54;76.49;99957.97;4973468;28;45521;-68
2021/12/01 04:44:15;;;;;;;;;0.25;0.25;;;;;9.58;76.83;99953.66;4971820;28;45571;-68
2021/12/01 04:46:46;;;;;;;;;1.00;1.00;;;;;9.60;77.17;99950.13;4982880;28;46398;-69
2021/12/01 04:49:17;;;;;;;;;1.00;1.00;;;;;9.61;77.12;99938.72;4973632;28;45375;-69
2021/12/01 04:51:45;;;;;;;;;1.50;1.00;;;;;9.58;76.81;99925.50;4966861;28;45377;-68
2021/12/01 04:54:11;;;;;;;;;0.25;0.25;;;;;9.47;77.24;99900.72;4960313;28;45461;-69
2021/12/01 04:56:37;;;;;;;;;2.25;1.50;;;;;9.59;76.79;99914.06;4966260;28;45420;-68
2021/12/01 04:59:05;;;;;;;;;3.00;1.75;;;;;9.58;77.02;99900.88;4959204;28;45268;-68
2021/12/01 05:01:33;;;;;;;;;3.00;1.50;;;;;9.56;76.77;99899.97;4966560;28;45470;-68
2021/12/01 05:03:58;;;;;;;;;1.00;1.00;;;;;9.59;77.42;99903.53;4959751;28;45327;-68
2021/12/01 05:06:23;;;;;;;;;2.00;2.00;;;;;9.55;78.52;99890.25;4955842;28;45486;-69
2021/12/01 05:08:49;;;;;;;;;1.00;1.00;;;;;9.57;76.83;99889.41;4958245;28;45239;-69
2021/12/01 05:11:14;;;;;;;;;8.00;8.00;;;;;9.55;77.80;99884.97;4959790;28;45430;-68
2021/12/01 05:13:40;;;;;;;;;1.00;1.00;;;;;9.55;77.64;99880.63;4956124;28;45229;-68
2021/12/01 05:16:05;;;;;;;;;1.00;1.00;;;;;9.48;77.07;99872.59;4958789;28;46140;-69
2021/12/01 05:18:31;;;;;;;;;0.25;0.25;;;;;9.45;77.75;99857.59;4957051;28;45630;-68
2021/12/01 05:20:56;;;;;;;;;4.50;4.50;;;;;9.49;77.45;99869.06;4970779;28;45640;-68
2021/12/01 05:23:21;;;;;;;;;0.25;0.25;;;;;9.46;78.38;99858.47;4987952;28;45782;-68
2021/12/01 05:25:47;;;;;;;;;0.00;0.00;;;;;9.50;77.48;99868.22;4958792;28;46935;-69
2021/12/01 05:28:12;;;;;;;;;0.00;0.00;;;;;9.49;77.54;99861.16;4956852;28;45284;-69
2021/12/01 05:30:38;;;;;;;;;0.00;0.00;;;;;9.48;77.43;99859.41;4959162;28;45306;-69
2021/12/01 05:33:06;;;;;;;;;0.00;0.00;;;;;9.39;77.52;99850.50;4956710;28;45479;-69
2021/12/01 05:35:32;;;;;;;;;0.25;0.25;;;;;9.49;78.16;99858.53;4958686;28;45490;-68
2021/12/01 05:37:58;;;;;;;;;1.00;0.00;;;;;9.49;77.18;99846.22;4967658;28;45323;-68
2021/12/01 05:40:23;;;;;;;;;0.00;0.00;;;;;9.52;77.97;99858.56;4956672;28;45770;-69
2021/12/01 05:42:49;;;;;;;;;0.00;0.00;;;;;9.52;77.81;99864.75;4974886;28;45292;-69
2021/12/01 05:45:15;;;;;;;;;1.00;0.00;;;;;9.48;78.14;99846.22;4966346;28;47469;-68
2021/12/01 05:47:40;;;;;;;;;2.00;1.00;;;;;9.51;78.61;99838.34;4982232;28;45346;-69
2021/12/01 05:50:06;;;;;;;;;0.25;0.25;;;;;9.49;78.60;99827.75;4967477;28;45563;-69
2021/12/01 05:52:31;;;;;;;;;0.00;0.00;;;;;9.47;78.53;99816.31;4956342;28;46675;-68
2021/12/01 05:54:56;;;;;;;;;0.00;0.00;;;;;9.48;77.83;99820.72;4962081;28;45486;-69
2021/12/01 05:57:23;;;;;;;;;0.00;0.00;;;;;9.52;78.23;99821.63;4960869;28;45252;-69
2021/12/01 05:59:49;;;;;;;;;1.00;1.00;;;;;9.49;78.61;99801.38;4961377;28;45481;-68
2021/12/01 06:02:15;;;;;;;;;0.00;0.00;;;;;9.60;77.86;99815.56;4961903;28;45455;-69
2021/12/01 06:04:40;;;;;;;;;0.25;0.00;;;;;9.49;77.83;99793.44;4959850;28;45363;-68
2021/12/01 06:07:06;;;;;;;;;0.00;0.00;;;;;9.59;78.12;99797.97;4963195;28;45373;-67
2021/12/01 06:09:31;;;;;;;;;1.50;0.50;;;;;9.57;77.11;99788.28;4958433;28;45375;-68
2021/12/01 06:11:56;;;;;;;;;1.00;0.00;;;;;9.56;78.09;99770.69;4955878;28;45368;-69
2021/12/01 06:14:22;;;;;;;;;0.50;0.50;;;;;9.59;78.41;99776.00;4958565;28;45413;-68
2021/12/01 06:16:47;;;;;;;;;0.00;0.00;;;;;9.61;77.93;99775.16;4956447;28;45590;-68
2021/12/01 06:19:13;;;;;;;;;0.00;0.00;;;;;9.66;77.77;99783.09;4959049;28;45500;-69
2021/12/01 06:21:38;;;;;;;;;0.50;0.50;;;;;9.64;78.53;99767.28;4958316;28;45342;-69
2021/12/01 06:24:04;;;;;;;;;0.00;0.00;;;;;9.69;78.14;99771.69;4958544;28;46158;-68
2021/12/01 06:26:29;;;;;;;;;0.00;0.00;;;;;9.67;78.22;99771.69;4956546;28;45483;-68
2021/12/01 06:28:54;;;;;;;;;2.75;2.00;;;;;9.63;78.70;99751.41;4958863;28;45624;-69
2021/12/01 06:31:20;;;;;;;;;8.75;8.75;;;;;9.60;77.82;99741.69;4960398;28;45304;-68
2021/12/01 06:33:45;;;;;;;;;1.25;1.25;;;;;9.71;77.98;99755.03;4958905;28;45293;-69
2021/12/01 06:36:11;;;;;;;;;0.00;0.00;;;;;9.70;78.60;99753.25;4973609;28;45654;-69
2021/12/01 06:38:38;;;;;;;;;0.00;0.00;;;;;9.73;79.36;99755.06;4975407;28;45343;-68
2021/12/01 06:41:04;;;;;;;;;0.50;0.50;;;;;9.76;78.82;99752.44;4958971;28;45327;-68
2021/12/01 06:43:29;;;;;;;;;0.00;0.00;;;;;9.63;78.42;99725.03;4958324;28;45659;-69
2021/12/01 06:45:54;;;;;;;;;0.00;0.00;;;;;9.63;79.14;99719.75;4988207;27;45942;-67
2021/12/01 06:48:20;;;;;;;;;4.75;2.00;;;;;9.86;79.12;99744.63;4978483;28;46052;-68
2021/12/01 06:50:45;;;;;;;;;0.75;0.75;;;;;9.86;78.98;99734.09;4969524;28;45347;-69
2021/12/01 06:53:10;;;;;;;;;0.00;0.00;;;;;9.87;78.93;99721.75;4958295;28;46703;-69
2021/12/01 06:55:36;;;;;;;;;2.00;0.00;;;;;9.85;78.51;99719.09;4969023;28;45292;-69
2021/12/01 06:58:01;;;;;;;;;0.25;0.25;;;;;9.97;77.74;99733.28;4958296;28;45875;-69
2021/12/01 07:00:27;;;;;;;;;0.00;0.00;;;;;9.97;79.60;99722.72;4968504;28;45401;-69
2021/12/01 07:02:53;;;;;;;;;0.00;0.00;;;;;10.01;78.10;99720.13;4959335;28;46359;-69
2021/12/01 07:05:18;;;;;;;;;0.00;0.00;;;;;10.07;78.00;99724.59;4969187;28;45545;-69
2021/12/01 07:07:44;;;;;;;;;0.00;0.00;;;;;10.07;78.55;99716.66;4960494;28;45546;-69
2021/12/01 07:10:12;;;;;;;;;0.00;0.00;;;;;10.11;78.59;99718.47;4962719;28;46411;-69
2021/12/01 07:12:39;;;;;;;;;0.50;0.00;;;;;10.15;78.43;99719.38;4958018;28;45451;-69
2021/12/01 07:15:06;;;;;;;;;0.00;0.00;;;;;10.17;78.80;99723.81;4959864;28;45574;-69
2021/12/01 07:17:31;;;;;;;;;0.00;0.00;;;;;10.19;78.83;99726.44;4969020;28;45388;-69
2021/12/01 07:19:57;;;;;;;;;0.00;0.00;;;;;10.21;77.97;99725.59;4957487;28;45344;-67
2021/12/01 07:22:22;;;;;;;;;0.00;0.00;;;;;10.18;79.01;99715.00;4969365;28;46037;-68
2021/12/01 07:24:47;;;;;;;;;0.00;0.00;;;;;10.23;78.73;99713.28;4962888;28;45429;-69
2021/12/01 07:27:14;;;;;;;;;0.00;0.00;;;;;10.23;79.25;99718.56;4964679;28;45632;-68
2021/12/01 07:29:42;;;;;;;;;0.00;0.00;;;;;10.25;78.77;99716.84;4961358;28;46019;-68
2021/12/01 07:32:08;;;;;;;;;0.00;0.00;;;;;10.29;78.43;99723.06;4965071;28;45356;-69
2021/12/01 07:34:41;;;;;;;;;0.00;0.00;;;;;10.33;78.94;99724.81;4961472;28;45389;-69
2021/12/01 07:37:06;;;;;;;;;0.00;0.00;;;;;10.32;79.40;99720.44;4984762;28;45315;-69
2021/12/01 07:39:32;;;;;;;;;0.00;0.00;;;;;10.32;78.81;99724.84;4966125;28;45408;-69
2021/12/01 07:41:57;;;;;;;;;0.00;0.00;;;;;10.29;78.94;99718.66;4957981;28;46182;-69
2021/12/01 07:44:22;;;;;;;;;0.00;0.00;;;;;10.32;78.70;99720.44;4961468;28;45495;-69
2021/12/01 07:46:48;;;;;;;;;0.50;0.50;;;;;10.36;79.03;99726.63;4979932;28;45358;-69
2021/12/01 07:49:14;;;;;;;;;1.25;0.00;;;;;10.38;78.64;99725.75;4974022;28;45360;-68
2021/12/01 07:51:39;;;;;;;;;4.00;2.75;;;;;10.38;78.47;99709.91;4960074;28;46334;-69
2021/12/01 07:54:04;;;;;;;;;0.00;0.00;;;;;10.44;78.20;99717.00;4960780;28;45707;-69
2021/12/01 07:56:30;;;;;;;;;0.67;0.67;;;;;10.44;78.76;99723.16;4966450;28;45293;-68
2021/12/01 07:58:55;;;;;;;;;0.00;0.00;;;;;10.43;78.26;99700.25;4959912;28;45482;-69
2021/12/01 08:01:20;;;;;;;;;0.00;0.00;;;;;10.46;78.17;99697.63;4966882;28;46453;-69
2021/12/01 08:03:46;;;;;;;;;0.00;0.00;;;;;10.47;77.74;99702.06;4958402;28;45379;-68
2021/12/01 08:06:11;;;;;;;;;0.00;0.00;;;;;10.49;77.81;99710.88;4967158;28;45412;-69
2021/12/01 08:08:36;;;;;;;;;0.00;0.00;;;;;10.50;77.87;99703.81;4957668;28;45583;-69
2021/12/01 08:11:02;;;;;;;;;0.00;0.00;;;;;10.53;77.49;99703.88;4961689;28;46174;-68
2021/12/01 08:13:27;;;;;;;;;0.33;0.00;;;;;10.48;77.86;99679.16;4956922;28;45360;-69
2021/12/01 08:15:52;;;;;;;;;0.00;0.00;;;;;10.48;77.27;99677.41;4962566;28;45450;-69
2021/12/01 08:18:18;;;;;;;;;0.00;0.00;;;;;10.52;77.07;99681.81;4958015;28;45729;-69
2021/12/01 08:20:45;;;;;;;;;1.00;0.00;;;;;10.46;77.39;99672.97;4959762;28;46558;-69
2021/12/01 08:23:10;;;;;;;;;0.00;0.00;;;;;10.52;77.04;99689.75;4956968;28;45313;-68
2021/12/01 08:25:36;;;;;;;;;0.00;0.00;;;;;10.50;77.39;99691.53;4957070;28;45282;-68
2021/12/01 08:28:02;;;;;;;;;0.00;0.00;;;;;10.52;77.44;99688.88;4957250;28;45314;-69
2021/12/01 08:30:30;;;;;;;;;0.00;0.00;;;;;10.52;76.65;99694.16;4961542;28;46032;-68
2021/12/01 08:32:56;;;;;;;;;0.00;0.00;;;;;10.54;77.65;99702.97;4977091;28;45357;-69
2021/12/01 08:35:24;;;;;;;;;1.00;0.00;;;;;10.54;76.93;99697.69;4970027;28;45347;-69
2021/12/01 08:37:49;;;;;;;;;0.00;0.00;;;;;10.52;78.07;99680.94;4959862;28;45498;-68
2021/12/01 08:40:16;;;;;;;;;0.00;0.00;;;;;10.59;77.35;99690.69;4958092;28;45276;-69
2021/12/01 08:42:42;;;;;;;;;0.00;0.00;;;;;10.70;76.60;99696.94;4958467;28;45718;-69
2021/12/01 08:45:08;;;;;;;;;0.00;0.00;;;;;10.73;77.46;99689.00;4962937;28;45406;-69
2021/12/01 08:47:34;;;;;;;;;0.00;0.00;;;;;10.79;76.76;99687.28;4985633;28;45568;-69
2021/12/01 08:49:59;;;;;;;;;0.00;0.00;;;;;10.75;76.74;99681.97;4969943;28;47405;-69
2021/12/01 08:52:25;;;;;;;;;3.25;2.50;;;;;10.80;76.65;99679.34;4970294;28;45319;-69
2021/12/01 08:54:50;;;;;;;;;0.33;0.00;;;;;10.85;75.84;99679.38;4963146;28;45383;-69
2021/12/01 08:57:16;;;;;;;;;0.00;0.00;;;;;10.87;76.08;99680.28;4964224;28;46101;-69
2021/12/01 08:59:41;;;;;;;;;0.00;0.00;;;;;10.91;76.14;99672.34;4961817;28;45581;-68
2021/12/01 09:02:07;;;;;;;;;1.00;0.00;;;;;10.98;76.00;99679.44;4965696;28;45522;-69
2021/12/01 09:04:32;;;;;;;;;0.00;0.00;;;;;11.07;75.72;99694.47;4960790;28;45472;-69
2021/12/01 09:06:58;;;;;;;;;0.00;0.00;;;;;11.06;75.90;99687.44;4958217;28;45367;-69
2021/12/01 09:09:23;;;;;;;;;0.00;0.00;;;;;11.17;75.79;99687.44;4960546;28;45314;-69
2021/12/01 09:11:51;;;;;;;;;0.00;0.00;;;;;11.22;74.79;99696.28;4957790;28;45451;-68
2021/12/01 09:14:18;;;;;;;;;1.00;0.00;;;;;11.16;74.60;99672.47;4960831;28;45439;-69
2021/12/01 09:16:46;;;;;;;;;0.00;0.00;;;;;11.23;73.97;99686.59;4957885;28;45265;-69
2021/12/01 09:19:12;;;;;;;;;0.33;0.00;;;;;11.22;74.47;99682.19;4960371;28;46271;-68
2021/12/01 09:21:38;;;;;;;;;0.00;0.00;;;;;11.23;74.03;99684.84;4957912;28;45384;-69
2021/12/01 09:24:04;;;;;;;;;0.00;0.00;;;;;11.17;74.53;99691.00;4956445;28;46111;-69
2021/12/01 09:26:30;;;;;;;;;0.00;0.00;;;;;11.23;73.80;99705.09;4960912;28;45502;-69
2021/12/01 09:28:56;;;;;;;;;1.00;0.00;;;;;11.17;74.06;99685.72;4958909;28;45741;-69
2021/12/01 09:31:21;;;;;;;;;0.00;0.00;;;;;11.22;73.73;99703.34;4958120;28;45256;-69
2021/12/01 09:33:47;;;;;;;;;0.00;0.00;;;;;11.22;73.28;99701.56;4958109;28;45557;-69
2021/12/01 09:36:13;;;;;;;;;1.00;0.00;;;;;11.19;73.17;99704.22;4974267;28;45867;-69
2021/12/01 09:38:39;;;;;;;;;0.00;0.00;;;;;11.15;72.81;99698.03;4962699;28;46312;-68
2021/12/01 09:41:04;;;;;;;;;0.00;0.00;;;;;11.22;72.37;99704.22;4960533;28;45413;-68
2021/12/01 09:43:31;;;;;;;;;0.00;0.00;;;;;11.19;71.66;99714.78;4957729;28;45415;-69
2021/12/01 09:45:59;;;;;;;;;0.00;0.00;;;;;11.11;72.24;99693.59;4977895;28;46133;-68
2021/12/01 09:48:26;;;;;;;;;2.00;0.33;;;;;11.16;72.04;99699.78;4975606;28;47227;-69
2021/12/01 09:50:52;;;;;;;;;0.00;0.00;;;;;11.24;72.77;99712.19;4962559;28;45485;-69
2021/12/01 09:53:17;;;;;;;;;0.33;0.33;;;;;11.23;72.44;99721.88;4957415;28;45336;-68
2021/12/01 09:55:43;;;;;;;;;0.00;0.00;;;;;11.23;72.19;99716.59;4967825;28;45447;-69
2021/12/01 09:58:14;;;;;;;;;0.00;0.00;;;;;11.16;72.27;99710.38;4957144;28;46785;-69
2021/12/01 10:00:46;;;;;;;;;0.00;0.00;;;;;11.18;72.70;99718.31;4969587;28;45407;-69
2021/12/01 10:03:12;;;;;;;;;0.00;0.00;;;;;11.12;71.44;99721.81;4960418;28;45425;-69
2021/12/01 10:05:50;;;;;;;;;0.00;0.00;;;;;11.17;71.75;99727.13;4969134;28;46080;-68
2021/12/01 10:08:24;;;;;;;;;0.00;0.00;;;;;11.07;71.38;99712.97;4959893;28;45483;-69
2021/12/01 10:10:51;;;;;;;;;3.00;3.00;;;;;10.93;72.37;99717.31;4961891;28;45370;-69
2021/12/01 10:13:27;;;;;;;;;1.75;1.75;;;;;10.91;72.65;99724.34;4960108;28;45307;-69
2021/12/01 10:15:54;;;;;;;;;0.00;0.00;;;;;10.79;73.05;99730.47;4962105;28;46631;-68
2021/12/01 10:18:19;;;;;;;;;0.00;0.00;;;;;10.71;72.67;99733.03;4959308;28;46493;-69
2021/12/01 10:21:26;;;;;;;;;0.00;0.00;;;;;10.60;72.95;99734.72;4961615;28;45391;-69
2021/12/01 10:23:55;;;;;;;;;0.00;0.00;;;;;10.50;73.09;99730.25;4986837;28;45304;-68
2021/12/01 10:26:25;;;;;;;;;0.00;0.00;;;;;10.42;73.25;99724.91;4966297;28;46328;-69
2021/12/01 10:28:59;;;;;;;;;0.00;0.00;;;;;10.28;73.73;99716.88;4959045;28;45525;-68
2021/12/01 10:31:48;;;;;;;;;0.00;0.00;;;;;10.23;73.91;99721.22;4963593;28;45517;-69
2021/12/01 10:34:19;;;;;;;;;0.00;0.00;;;;;10.23;73.79;99733.53;4962832;28;45510;-68
2021/12/01 10:36:47;;;;;;;;;1.00;0.00;;;;;10.15;73.65;99720.25;4958793;28;45387;-68
2021/12/01 10:39:13;;;;;;;;;0.50;0.50;;;;;10.17;74.35;99730.84;4959588;28;46176;-68
2021/12/01 10:41:41;;;;;;;;;1.25;0.00;;;;;10.12;74.48;99719.34;4959511;28;45305;-69
2021/12/01 10:44:17;;;;;;;;;2.00;2.00;;;;;10.15;74.30;99729.94;4960511;28;45225;-69
2021/12/01 10:46:47;;;;;;;;;0.25;0.25;;;;;10.13;74.80;99732.56;4983517;28;45573;-68
2021/12/01 10:49:12;;;;;;;;;1.00;1.00;;;;;10.11;74.66;99715.84;4975401;28;46198;-69
2021/12/01 10:51:41;;;;;;;;;1.00;1.00;;;;;10.21;74.17;99744.06;4962361;28;45412;-68
2021/12/01 10:54:19;;;;;;;;;1.00;1.00;;;;;10.25;74.21;99723.84;4961917;28;45245;-69
2021/12/01 10:56:46;;;;;;;;;1.25;1.25;;;;;10.34;74.15;99723.97;4967483;28;45387;-69
2021/12/01 10:59:15;;;;;;;;;1.00;1.00;;;;;10.38;74.05;99715.19;4961714;28;47256;-69
2021/12/01 11:01:41;;;;;;;;;1.00;1.00;;;;;10.51;73.91;99735.56;4961830;28;45274;-69
2021/12/01 11:04:07;;;;;;;;;2.50;2.00;;;;;10.53;74.34;99725.00;4959310;28;45225;-69
2021/12/01 11:06:39;;;;;;;;;1.00;1.00;;;;;10.60;74.42;99733.84;4963019;28;45542;-68
2021/12/01 11:09:04;;;;;;;;;1.00;1.00;;;;;10.60;73.67;99715.34;4961551;28;46226;-68
2021/12/01 11:11:41;;;;;;;;;2.00;2.00;;;;;10.63;74.31;99718.88;4958121;28;45434;-69
2021/12/01 11:14:14;;;;;;;;;1.50;1.50;;;;;10.63;73.57;99723.28;4962101;28;45182;-69
2021/12/01 11:16:42;;;;;;;;;0.00;0.00;;;;;10.56;73.05;99711.81;4959214;28;45554;-68
2021/12/01 11:19:08;;;;;;;;;4.00;3.00;;;;;10.62;73.40;99713.63;4961660;28;45512;-68
2021/12/01 11:21:37;;;;;;;;;1.25;1.25;;;;;10.62;73.01;99721.53;4966334;28;46108;-68
2021/12/01 11:24:10;;;;;;;;;2.25;2.00;;;;;10.67;72.72;99722.44;4959955;28;45412;-68
2021/12/01 11:26:36;;;;;;;;;1.00;1.00;;;;;10.70;73.00;99714.56;4966966;28;46026;-69
2021/12/01 11:29:08;;;;;;;;;1.50;1.00;;;;;10.69;72.49;99715.41;4969236;28;45439;-69
2021/12/01 11:31:35;;;;;;;;;3.00;2.00;;;;;10.78;72.89;99712.81;4970850;28;45295;-69
2021/12/01 11:34:04;;;;;;;;;1.50;1.00;;;;;10.70;72.73;99693.41;4976285;28;45331;-69
2021/12/01 11:36:40;;;;;;;;;3.00;2.00;;;;;10.80;72.61;99705.78;4980409;28;47260;-68
2021/12/01 11:39:08;;;;;;;;;2.50;1.25;;;;;10.95;73.06;99720.84;4958835;28;45532;-69
2021/12/01 11:41:36;;;;;;;;;5.00;2.00;;;;;11.00;72.66;99712.94;4958578;28;45234;-69